createdAt,value
2023-02-09T00:01:15.340Z,46.94
2023-02-09T00:03:46.054Z,46.57
2023-02-09T00:06:17.513Z,46.91
2023-02-09T00:08:45.271Z,46.74
2023-02-09T00:11:45.424Z,46.33
2023-02-09T00:14:13.962Z,46.28
2023-02-09T00:16:42.282Z,46.59
2023-02-09T00:19:10.754Z,45.76
2023-02-09T00:21:38.812Z,46.16
2023-02-09T00:24:07.608Z,46.79
2023-02-09T00:26:34.937Z,46.57
2023-02-09T00:29:02.845Z,46.61
2023-02-09T00:31:30.620Z,46.26
2023-02-09T00:34:00.703Z,45.33
2023-02-09T00:36:28.887Z,45.23
2023-02-09T00:38:56.600Z,45.55
2023-02-09T00:41:42.347Z,45.55
2023-02-09T00:44:11.573Z,45.59
2023-02-09T00:46:38.981Z,46.04
2023-02-09T00:49:06.804Z,45.79
2023-02-09T00:51:34.325Z,45.72
2023-02-09T00:54:03.981Z,45.65
2023-02-09T00:56:31.322Z,45.32
2023-02-09T00:59:00.362Z,46.17
2023-02-09T01:01:28.097Z,45.99
2023-02-09T01:03:56.343Z,45.51
2023-02-09T01:06:23.675Z,45.62
2023-02-09T01:08:51.240Z,46.85
2023-02-09T01:11:21.288Z,45.54
2023-02-09T01:13:49.068Z,45.74
2023-02-09T01:16:17.773Z,45.87
2023-02-09T01:18:45.566Z,45.28
2023-02-09T01:21:18.635Z,45.66
2023-02-09T01:23:47.305Z,45.75
2023-02-09T01:26:17.753Z,47.09
2023-02-09T01:28:49.773Z,47.29
2023-02-09T01:31:29.401Z,47.84
2023-02-09T01:33:58.701Z,46.91
2023-02-09T01:36:29.132Z,46.30
2023-02-09T01:38:58.671Z,46.50
2023-02-09T01:41:26.303Z,46.99
2023-02-09T01:44:19.624Z,46.61
2023-02-09T01:46:48.775Z,46.07
2023-02-09T01:49:18.952Z,46.60
2023-02-09T01:51:51.574Z,45.64
2023-02-09T01:54:24.593Z,45.94
2023-02-09T01:56:58.678Z,45.98
2023-02-09T01:59:27.298Z,46.17
2023-02-09T02:01:54.770Z,46.18
2023-02-09T02:04:22.536Z,45.96
2023-02-09T02:07:01.142Z,45.52
2023-02-09T02:09:29.631Z,45.59
2023-02-09T02:11:57.057Z,45.48
2023-02-09T02:14:35.851Z,45.67
2023-02-09T02:17:14.578Z,45.58
2023-02-09T02:20:15.900Z,45.63
2023-02-09T02:23:20.776Z,45.49
2023-02-09T02:26:08.957Z,45.62
2023-02-09T02:28:42.866Z,45.86
2023-02-09T02:31:35.262Z,46.16
2023-02-09T02:34:40.562Z,45.89
2023-02-09T02:37:25.980Z,45.71
2023-02-09T02:40:20.784Z,45.69
2023-02-09T02:42:48.162Z,46.33
2023-02-09T02:45:39.959Z,46.71
2023-02-09T02:48:32.195Z,46.44
2023-02-09T02:51:08.324Z,46.46
2023-02-09T02:53:40.010Z,45.85
2023-02-09T02:56:18.674Z,46.26
2023-02-09T02:58:49.150Z,46.17
2023-02-09T03:01:22.048Z,46.44
2023-02-09T03:03:51.712Z,46.26
2023-02-09T03:06:19.508Z,46.25
2023-02-09T03:08:50.788Z,46.01
2023-02-09T03:11:21.521Z,45.54
2023-02-09T03:14:04.318Z,46.43
2023-02-09T03:16:49.682Z,45.88
2023-02-09T03:19:16.964Z,46.56
2023-02-09T03:22:09.084Z,46.27
2023-02-09T03:24:50.169Z,46.49
2023-02-09T03:27:32.028Z,46.22
2023-02-09T03:30:01.104Z,45.70
2023-02-09T03:32:28.762Z,44.89
2023-02-09T03:34:59.236Z,45.70
2023-02-09T03:37:26.609Z,45.70
2023-02-09T03:39:54.097Z,46.14
2023-02-09T03:42:21.415Z,46.31
2023-02-09T03:44:48.811Z,46.69
2023-02-09T03:47:16.112Z,46.81
2023-02-09T03:49:45.532Z,47.25
2023-02-09T03:52:14.587Z,46.89
2023-02-09T03:54:41.964Z,47.21
2023-02-09T03:57:10.377Z,47.94
2023-02-09T03:59:38.053Z,48.00
2023-02-09T04:02:07.179Z,48.14
2023-02-09T04:04:35.158Z,48.21
2023-02-09T04:07:02.750Z,47.59
2023-02-09T04:09:30.401Z,47.42
2023-02-09T04:11:57.688Z,47.99
2023-02-09T04:14:26.270Z,48.00
2023-02-09T04:16:53.717Z,48.89
2023-02-09T04:19:21.175Z,49.27
2023-02-09T04:21:48.692Z,49.71
2023-02-09T04:24:21.862Z,49.91
2023-02-09T04:26:49.266Z,49.61
2023-02-09T04:29:16.793Z,49.29
2023-02-09T04:31:44.231Z,49.51
2023-02-09T04:34:11.809Z,48.89
2023-02-09T04:36:39.251Z,49.11
2023-02-09T04:39:06.617Z,49.07
2023-02-09T04:41:34.187Z,49.11
2023-02-09T04:44:01.530Z,49.49
2023-02-09T04:46:28.948Z,49.34
2023-02-09T04:48:56.346Z,49.28
2023-02-09T04:51:23.770Z,49.33
2023-02-09T04:53:51.272Z,49.47
2023-02-09T04:56:18.733Z,50.11
2023-02-09T04:59:07.761Z,50.60
2023-02-09T05:01:35.388Z,49.74
2023-02-09T05:04:02.679Z,49.68
2023-02-09T05:06:30.433Z,50.38
2023-02-09T05:08:57.923Z,49.87
2023-02-09T05:11:25.728Z,50.55
2023-02-09T05:13:53.300Z,51.24
2023-02-09T05:16:23.557Z,50.09
2023-02-09T05:18:51.174Z,51.09
2023-02-09T05:21:18.889Z,50.49
2023-02-09T05:23:46.293Z,50.37
2023-02-09T05:26:13.809Z,50.41
2023-02-09T05:28:41.225Z,51.42
2023-02-09T05:31:08.619Z,52.09
2023-02-09T05:33:35.946Z,51.68
2023-02-09T05:36:09.510Z,51.79
2023-02-09T05:38:37.123Z,52.04
2023-02-09T05:41:06.081Z,52.51
2023-02-09T05:43:33.634Z,52.80
2023-02-09T05:46:01.311Z,52.26
2023-02-09T05:48:29.602Z,53.42
2023-02-09T05:50:57.033Z,52.22
2023-02-09T05:53:24.373Z,52.42
2023-02-09T05:55:51.770Z,52.08
2023-02-09T05:58:19.091Z,53.45
2023-02-09T06:00:46.712Z,53.40
2023-02-09T06:03:14.235Z,54.60
2023-02-09T06:05:44.953Z,52.67
2023-02-09T06:08:12.241Z,54.94
2023-02-09T06:10:39.571Z,54.84
2023-02-09T06:13:07.298Z,55.05
2023-02-09T06:15:34.623Z,54.32
2023-02-09T06:18:02.164Z,55.00
2023-02-09T06:20:29.472Z,54.69
2023-02-09T06:22:56.790Z,55.20
2023-02-09T06:25:24.121Z,54.61
2023-02-09T06:27:51.530Z,56.35
2023-02-09T06:30:19.065Z,56.00
2023-02-09T06:32:46.445Z,55.22
2023-02-09T06:35:13.792Z,55.90
2023-02-09T06:37:41.148Z,55.41
2023-02-09T06:40:08.696Z,55.91
2023-02-09T06:42:44.890Z,55.91
2023-02-09T06:45:17.016Z,55.84
2023-02-09T06:47:47.487Z,56.54
2023-02-09T06:50:18.362Z,56.78
2023-02-09T06:52:46.506Z,57.44
2023-02-09T06:55:14.260Z,57.48
2023-02-09T06:57:41.739Z,54.55
2023-02-09T07:00:11.497Z,52.45
2023-02-09T07:02:38.924Z,49.71
2023-02-09T07:05:06.556Z,50.12
2023-02-09T07:07:33.983Z,49.66
2023-02-09T07:10:02.123Z,49.20
2023-02-09T07:12:29.452Z,46.81
2023-02-09T07:14:56.754Z,46.45
2023-02-09T07:17:24.117Z,45.66
2023-02-09T07:19:51.369Z,44.36
2023-02-09T07:22:18.756Z,43.24
2023-02-09T07:24:46.110Z,41.96
2023-02-09T07:27:13.435Z,41.27
2023-02-09T07:29:41.091Z,39.72
2023-02-09T07:32:08.720Z,39.95
2023-02-09T07:34:36.182Z,40.59
2023-02-09T07:37:04.399Z,40.60
2023-02-09T07:39:32.040Z,40.46
2023-02-09T07:41:59.564Z,39.08
2023-02-09T07:44:42.101Z,36.76
2023-02-09T07:47:09.445Z,36.57
2023-02-09T07:49:36.792Z,35.13
2023-02-09T07:52:04.232Z,33.36
2023-02-09T07:54:31.661Z,33.25
2023-02-09T07:56:59.045Z,34.05
2023-02-09T07:59:26.408Z,33.46
2023-02-09T08:01:53.783Z,32.14
2023-02-09T08:04:21.983Z,31.24
2023-02-09T08:06:49.445Z,31.26
2023-02-09T08:09:16.872Z,31.48
2023-02-09T08:11:51.028Z,30.44
2023-02-09T08:14:26.343Z,30.91
2023-02-09T08:17:17.216Z,32.11
2023-02-09T08:19:47.989Z,32.19
2023-02-09T08:22:17.972Z,32.07
2023-02-09T08:24:45.458Z,30.92
2023-02-09T08:27:12.876Z,31.50
2023-02-09T08:29:40.524Z,32.14
2023-02-09T08:32:07.988Z,31.75
2023-02-09T08:34:35.421Z,30.69
2023-02-09T08:37:02.783Z,29.45
2023-02-09T08:39:30.216Z,29.61
2023-02-09T08:41:57.559Z,30.68
2023-02-09T08:44:24.861Z,28.97
2023-02-09T08:46:52.737Z,28.67
2023-02-09T08:49:20.296Z,30.38
2023-02-09T08:51:47.646Z,30.04
2023-02-09T08:54:15.891Z,30.28
2023-02-09T08:56:44.187Z,29.56
2023-02-09T08:59:12.483Z,30.32
2023-02-09T09:01:40.612Z,30.73
2023-02-09T09:04:08.820Z,30.35
2023-02-09T09:06:36.509Z,28.82
2023-02-09T09:09:04.109Z,26.90
2023-02-09T09:11:31.481Z,27.04
2023-02-09T09:14:01.669Z,26.50
2023-02-09T09:16:29.080Z,26.59
2023-02-09T09:18:56.491Z,25.89
2023-02-09T09:21:23.916Z,25.49
2023-02-09T09:23:51.229Z,25.97
2023-02-09T09:26:18.799Z,25.65
2023-02-09T09:28:49.631Z,26.48
2023-02-09T09:31:18.119Z,26.30
2023-02-09T09:33:45.872Z,25.74
2023-02-09T09:36:14.734Z,25.38
2023-02-09T09:38:45.704Z,25.60
2023-02-09T09:41:25.902Z,27.20
2023-02-09T09:43:54.214Z,27.29
2023-02-09T09:46:31.031Z,25.63
2023-02-09T09:49:00.160Z,25.46
2023-02-09T09:51:42.855Z,27.05
2023-02-09T09:54:22.676Z,26.09
2023-02-09T09:56:52.171Z,26.35
2023-02-09T09:59:23.809Z,27.61
2023-02-09T10:01:55.256Z,27.45
2023-02-09T10:04:22.668Z,27.39
2023-02-09T10:06:59.570Z,26.40
2023-02-09T10:09:42.210Z,26.83
2023-02-09T10:12:28.677Z,26.88
2023-02-09T10:14:56.021Z,28.58
2023-02-09T10:17:23.356Z,29.05
2023-02-09T10:20:07.270Z,28.73
2023-02-09T10:22:34.777Z,28.68
2023-02-09T10:25:03.977Z,29.23
2023-02-09T10:27:31.487Z,28.99
2023-02-09T10:30:20.114Z,29.36
2023-02-09T10:32:47.794Z,29.88
2023-02-09T10:35:41.840Z,29.47
2023-02-09T10:38:17.246Z,30.81
2023-02-09T10:40:47.509Z,30.59
2023-02-09T10:43:27.340Z,30.23
2023-02-09T10:45:57.507Z,30.32
2023-02-09T10:48:27.558Z,30.48
2023-02-09T10:51:06.479Z,30.83
2023-02-09T10:53:40.540Z,30.66
2023-02-09T10:56:23.130Z,30.95
2023-02-09T10:59:13.809Z,30.70
2023-02-09T11:01:44.466Z,30.60
2023-02-09T11:04:21.438Z,31.00
2023-02-09T11:06:56.345Z,31.40
2023-02-09T11:09:34.112Z,30.36
2023-02-09T11:12:01.927Z,30.37
2023-02-09T11:14:29.611Z,31.61
2023-02-09T11:17:09.480Z,30.90
2023-02-09T11:20:23.505Z,30.89
2023-02-09T11:22:54.485Z,30.79
2023-02-09T11:25:27.418Z,31.01
2023-02-09T11:28:18.745Z,30.15
2023-02-09T11:30:46.536Z,30.78
2023-02-09T11:33:45.090Z,30.37
2023-02-09T11:36:40.069Z,30.54
2023-02-09T11:39:14.230Z,30.79
2023-02-09T11:42:17.257Z,30.38
2023-02-09T11:44:52.796Z,30.01
2023-02-09T11:47:33.156Z,30.77
2023-02-09T11:50:05.753Z,30.33
2023-02-09T11:52:44.164Z,31.08
2023-02-09T11:55:31.660Z,30.86
2023-02-09T11:58:12.688Z,31.49
2023-02-09T12:01:04.076Z,31.53
2023-02-09T12:03:39.796Z,30.84
2023-02-09T12:06:07.551Z,30.65
2023-02-09T12:08:57.780Z,30.72
2023-02-09T12:11:37.032Z,30.38
2023-02-09T12:14:24.156Z,31.38
2023-02-09T12:17:02.960Z,30.33
2023-02-09T12:19:30.204Z,30.01
2023-02-09T12:21:57.597Z,30.12
2023-02-09T12:24:33.302Z,29.90
2023-02-09T12:27:00.743Z,30.44
2023-02-09T12:29:39.889Z,31.35
2023-02-09T12:32:10.163Z,30.17
2023-02-09T12:34:42.512Z,30.49
2023-02-09T12:37:12.641Z,30.32
2023-02-09T12:40:04.980Z,30.33
2023-02-09T12:42:46.206Z,30.19
2023-02-09T12:45:35.664Z,30.32
2023-02-09T12:48:09.159Z,28.94
2023-02-09T12:50:42.358Z,29.36
2023-02-09T12:53:21.806Z,30.58
2023-02-09T12:56:07.269Z,30.76
2023-02-09T12:59:06.378Z,30.70
2023-02-09T13:02:07.678Z,30.17
2023-02-09T13:04:40.287Z,30.93
2023-02-09T13:07:21.485Z,31.32
2023-02-09T13:09:49.975Z,30.43
2023-02-09T13:12:22.312Z,30.63
2023-02-09T13:14:50.903Z,30.82
2023-02-09T13:17:57.991Z,30.72
2023-02-09T13:20:28.880Z,30.30
2023-02-09T13:23:13.232Z,30.70
2023-02-09T13:25:40.752Z,30.69
2023-02-09T13:28:26.605Z,30.48
2023-02-09T13:30:54.210Z,31.12
2023-02-09T13:33:44.382Z,32.30
2023-02-09T13:36:30.193Z,32.13
2023-02-09T13:38:58.375Z,32.25
2023-02-09T13:41:38.055Z,31.81
2023-02-09T13:44:19.672Z,31.14
2023-02-09T13:46:58.631Z,31.39
2023-02-09T13:49:28.562Z,31.29
2023-02-09T13:52:16.429Z,31.18
2023-02-09T13:54:44.111Z,31.00
2023-02-09T13:57:20.262Z,31.63
2023-02-09T13:59:47.674Z,30.82
2023-02-09T14:02:24.523Z,30.81
2023-02-09T14:04:59.060Z,31.53
2023-02-09T14:07:31.851Z,30.82
2023-02-09T14:10:06.765Z,31.62
2023-02-09T14:12:55.619Z,31.21
2023-02-09T14:15:50.318Z,31.86
2023-02-09T14:18:31.692Z,31.58
2023-02-09T14:21:13.487Z,31.92
2023-02-09T14:23:43.955Z,31.36
2023-02-09T14:26:14.147Z,31.83
2023-02-09T14:28:45.323Z,31.79
2023-02-09T14:31:22.185Z,32.33
2023-02-09T14:33:55.361Z,33.02
2023-02-09T14:36:34.764Z,32.86
2023-02-09T14:39:17.062Z,33.35
2023-02-09T14:42:00.473Z,33.50
2023-02-09T14:44:29.541Z,33.23
2023-02-09T14:47:00.214Z,33.57
2023-02-09T14:49:28.761Z,33.90
2023-02-09T14:52:13.027Z,33.37
2023-02-09T14:54:47.608Z,33.22
2023-02-09T14:57:15.052Z,32.31
2023-02-09T14:59:42.453Z,32.92
2023-02-09T15:02:19.952Z,33.67
2023-02-09T15:04:47.342Z,33.36
2023-02-09T15:07:22.112Z,33.54
2023-02-09T15:09:50.304Z,34.00
2023-02-09T15:12:28.223Z,34.37
2023-02-09T15:14:59.028Z,34.36
2023-02-09T15:17:29.385Z,34.01
2023-02-09T15:19:58.017Z,33.69
2023-02-09T15:22:26.189Z,34.47
2023-02-09T15:24:54.754Z,34.39
2023-02-09T15:27:32.433Z,34.80
2023-02-09T15:30:03.737Z,34.96
2023-02-09T15:32:32.448Z,35.56
2023-02-09T15:34:59.793Z,35.35
2023-02-09T15:37:33.069Z,35.27
2023-02-09T15:40:13.222Z,35.78
2023-02-09T15:43:00.506Z,36.09
2023-02-09T15:45:48.617Z,36.34
2023-02-09T15:48:16.053Z,36.49
2023-02-09T15:50:46.999Z,36.84
2023-02-09T15:53:18.760Z,37.26
2023-02-09T15:55:46.866Z,37.49
2023-02-09T15:58:17.217Z,37.13
2023-02-09T16:00:44.938Z,37.24
2023-02-09T16:03:17.643Z,37.43
2023-02-09T16:05:47.793Z,37.54
2023-02-09T16:08:24.829Z,38.29
2023-02-09T16:10:56.400Z,38.48
2023-02-09T16:13:23.744Z,38.95
2023-02-09T16:15:51.125Z,39.28
2023-02-09T16:18:19.062Z,39.33
2023-02-09T16:20:50.162Z,39.46
2023-02-09T16:23:22.782Z,39.13
2023-02-09T16:25:51.507Z,40.04
2023-02-09T16:28:20.974Z,40.18
2023-02-09T16:30:59.285Z,40.28
2023-02-09T16:33:26.578Z,40.66
2023-02-09T16:35:56.814Z,40.31
2023-02-09T16:38:25.612Z,41.00
2023-02-09T16:40:54.404Z,40.82
2023-02-09T16:43:22.946Z,41.07
2023-02-09T16:46:02.791Z,41.75
2023-02-09T16:48:34.547Z,42.25
2023-02-09T16:51:02.467Z,41.86
2023-02-09T16:53:33.259Z,41.79
2023-02-09T16:56:10.196Z,42.10
2023-02-09T16:58:38.183Z,42.26
2023-02-09T17:01:17.499Z,42.15
2023-02-09T17:03:54.470Z,42.82
2023-02-09T17:06:24.949Z,42.75
2023-02-09T17:08:53.259Z,42.51
2023-02-09T17:11:26.051Z,43.45
2023-02-09T17:13:54.549Z,42.78
2023-02-09T17:16:25.449Z,43.04
2023-02-09T17:18:56.816Z,42.94
2023-02-09T17:21:31.381Z,43.14
2023-02-09T17:23:58.676Z,43.44
2023-02-09T17:26:28.889Z,43.82
2023-02-09T17:28:56.181Z,44.04
2023-02-09T17:31:26.869Z,43.73
2023-02-09T17:34:00.888Z,44.06
2023-02-09T17:36:29.778Z,44.40
2023-02-09T17:38:59.500Z,44.57
2023-02-09T17:41:38.421Z,44.41
2023-02-09T17:44:43.714Z,44.84
2023-02-09T17:47:17.464Z,44.55
2023-02-09T17:49:45.210Z,45.15
2023-02-09T17:52:17.162Z,45.17
2023-02-09T17:54:45.422Z,45.64
2023-02-09T17:57:15.519Z,45.54
2023-02-09T17:59:43.040Z,45.97
2023-02-09T18:02:18.230Z,46.08
2023-02-09T18:04:46.021Z,46.08
2023-02-09T18:07:20.026Z,46.41
2023-02-09T18:09:47.658Z,46.70
2023-02-09T18:12:29.132Z,46.97
2023-02-09T18:14:56.493Z,46.39
2023-02-09T18:17:23.792Z,47.41
2023-02-09T18:19:51.181Z,48.65
2023-02-09T18:22:19.892Z,48.92
2023-02-09T18:24:47.377Z,48.64
2023-02-09T18:27:17.443Z,49.05
2023-02-09T18:29:44.798Z,49.56
2023-02-09T18:32:15.381Z,49.76
2023-02-09T18:34:43.093Z,49.52
2023-02-09T18:37:10.362Z,49.81
2023-02-09T18:39:40.724Z,50.15
2023-02-09T18:42:14.077Z,50.36
2023-02-09T18:44:41.545Z,50.59
2023-02-09T18:47:10.619Z,50.92
2023-02-09T18:49:38.550Z,50.72
2023-02-09T18:52:06.332Z,51.48
2023-02-09T18:54:33.822Z,51.38
2023-02-09T18:57:01.223Z,51.57
2023-02-09T18:59:30.618Z,51.87
2023-02-09T19:01:59.026Z,52.06
2023-02-09T19:04:26.909Z,52.33
2023-02-09T19:06:54.297Z,52.23
2023-02-09T19:09:21.674Z,52.46
2023-02-09T19:11:49.001Z,53.26
2023-02-09T19:14:45.427Z,53.11
2023-02-09T19:17:18.685Z,53.41
2023-02-09T19:19:49.399Z,53.89
2023-02-09T19:22:19.163Z,53.38
2023-02-09T19:24:48.258Z,53.99
2023-02-09T19:27:18.601Z,54.28
2023-02-09T19:29:46.588Z,54.71
2023-02-09T19:32:15.253Z,54.27
2023-02-09T19:34:43.179Z,54.05
2023-02-09T19:37:12.273Z,54.15
2023-02-09T19:39:41.536Z,54.71
2023-02-09T19:42:09.038Z,54.55
2023-02-09T19:44:36.598Z,54.80
2023-02-09T19:47:04.105Z,54.75
2023-02-09T19:49:32.816Z,54.88
2023-02-09T19:52:01.619Z,55.30
2023-02-09T19:54:28.991Z,55.06
2023-02-09T19:56:56.502Z,56.13
2023-02-09T19:59:24.072Z,56.39
2023-02-09T20:01:51.473Z,56.39
2023-02-09T20:04:18.845Z,57.13
2023-02-09T20:06:49.194Z,57.06
2023-02-09T20:09:16.537Z,56.81
2023-02-09T20:11:43.826Z,56.71
2023-02-09T20:14:12.503Z,57.06
2023-02-09T20:16:40.274Z,56.90
2023-02-09T20:19:10.709Z,56.88
2023-02-09T20:21:38.060Z,57.44
2023-02-09T20:24:09.542Z,57.60
2023-02-09T20:26:39.993Z,57.32
2023-02-09T20:29:07.878Z,56.95
2023-02-09T20:31:37.663Z,56.87
2023-02-09T20:34:07.743Z,57.34
2023-02-09T20:36:36.904Z,56.92
2023-02-09T20:39:06.121Z,57.28
2023-02-09T20:41:33.589Z,57.72
2023-02-09T20:44:19.314Z,57.82
2023-02-09T20:46:58.808Z,57.99
2023-02-09T20:49:36.292Z,57.80
2023-02-09T20:52:03.713Z,58.31
2023-02-09T20:54:32.263Z,58.71
2023-02-09T20:56:59.610Z,59.05
2023-02-09T20:59:26.972Z,59.66
2023-02-09T21:01:54.312Z,60.04
2023-02-09T21:04:21.679Z,60.46
2023-02-09T21:06:49.057Z,61.17
2023-02-09T21:09:19.077Z,61.05
2023-02-09T21:11:46.510Z,62.08
2023-02-09T21:14:22.011Z,62.53
2023-02-09T21:17:00.032Z,62.25
2023-02-09T21:19:27.477Z,62.67
2023-02-09T21:21:54.914Z,62.84
2023-02-09T21:24:22.386Z,62.88
2023-02-09T21:26:49.786Z,62.80
2023-02-09T21:29:19.257Z,63.75
2023-02-09T21:31:46.674Z,64.05
2023-02-09T21:34:17.314Z,64.30
2023-02-09T21:36:44.631Z,63.75
2023-02-09T21:39:12.887Z,64.10
2023-02-09T21:41:58.449Z,64.68
2023-02-09T21:44:25.864Z,64.61
2023-02-09T21:46:54.074Z,64.32
2023-02-09T21:49:21.617Z,65.68
2023-02-09T21:51:49.292Z,65.79
2023-02-09T21:54:18.392Z,66.08
2023-02-09T21:56:45.791Z,66.41
2023-02-09T21:59:15.285Z,66.32
2023-02-09T22:01:43.171Z,65.44
2023-02-09T22:04:10.764Z,65.71
2023-02-09T22:06:38.052Z,65.14
2023-02-09T22:09:06.352Z,65.07
2023-02-09T22:11:34.120Z,66.47
2023-02-09T22:14:01.881Z,66.22
2023-02-09T22:16:29.648Z,64.93
2023-02-09T22:18:58.505Z,66.18
2023-02-09T22:21:26.199Z,66.02
2023-02-09T22:23:53.773Z,65.64
2023-02-09T22:26:21.470Z,65.87
2023-02-09T22:28:48.915Z,66.07
2023-02-09T22:31:18.780Z,66.68
2023-02-09T22:33:46.637Z,66.96
2023-02-09T22:36:16.955Z,67.73
2023-02-09T22:38:45.253Z,68.09
2023-02-09T22:41:24.228Z,68.00
2023-02-09T22:43:56.077Z,67.69
2023-02-09T22:46:38.050Z,68.45
2023-02-09T22:49:06.841Z,68.40
2023-02-09T22:51:35.893Z,67.85
2023-02-09T22:54:05.222Z,68.06
2023-02-09T22:56:32.856Z,69.00
2023-02-09T22:59:01.510Z,69.51
2023-02-09T23:01:29.572Z,68.59
2023-02-09T23:03:57.288Z,68.03
2023-02-09T23:06:27.668Z,68.05
2023-02-09T23:08:57.107Z,69.45
2023-02-09T23:11:24.847Z,69.19
2023-02-09T23:14:07.052Z,69.50
2023-02-09T23:16:35.820Z,70.14
2023-02-09T23:19:06.126Z,69.93
2023-02-09T23:21:36.468Z,69.57
2023-02-09T23:24:04.682Z,69.84
2023-02-09T23:26:32.567Z,69.24
2023-02-09T23:29:02.554Z,69.81
2023-02-09T23:31:30.430Z,68.82
2023-02-09T23:33:57.905Z,68.73
2023-02-09T23:36:27.851Z,68.33
2023-02-09T23:38:57.602Z,68.67
2023-02-09T23:41:26.175Z,68.11
2023-02-09T23:43:54.308Z,68.73
2023-02-09T23:46:28.703Z,68.11
2023-02-09T23:48:57.072Z,68.54
2023-02-09T23:51:28.555Z,69.11
2023-02-09T23:53:58.958Z,69.37
2023-02-09T23:56:26.923Z,68.96
2023-02-09T23:58:54.653Z,68.94
